LYPG

Podgorica Airport

Podgorica, Montenegro
TAF LYPG 182300Z 1900/1924 36006KT 9999 SCT033 BKN080 TX12/1913Z TN07/1906Z TEMPO 1922/1924 4000 RA
Issued Valid From Valid To
Nov-18 @ 23:00 UTC
(2 hours ago)
Nov-19 @ 00:00 UTC
(58 minutes ago)
Nov-20 @ 00:00 UTC
(in 23 hours)
Nov-19 @ 00:00 to Nov-20 @ 00:00
TAF LYPG 182300Z 1900/1924 36006KT 9999 SCT033 BKN080 TX12/1913Z TN07/1906Z
Wind Visibility Clouds
360° at 6 knots 10,000+ meters
  • Scattered at 3,300' AGL
  • Broken at 8,000' AGL
Temporary Nov-19 @ 22:00 to Nov-20 @ 00:00
TEMPO 1922/1924 4000 RA
Visibility Conditions
4,007 meters
  • Rain
TAF LYPG 182300Z 1900/1924 36006KT 9999 SCT033 BKN080 TX12/1913Z TN07/1906Z TEMPO 1922/1924 4000 RA
Issued Nov-18 @ 23:00 UTC
(2 hours ago)
Valid From Nov-19 @ 00:00 UTC
(58 minutes ago)
Valid To Nov-20 @ 00:00 UTC
(in 23 hours)
Nov-19 @ 00:00 - Nov-20 @ 00:00
Wind Visibility
360° at 6 knots 10,000+ meters
Clouds
  • Scattered at 3,300' AGL
  • Broken at 8,000' AGL
Temporary Nov-19 @ 22:00 - Nov-20 @ 00:00
Conditions
  • Rain